Time;durP1;ratioP1;P1;durP2;ratioP2;P2;SDS_P1;SDS_P2;PMS_P1;PMS_P2;Temp;Humidity;BMP_temperature;BMP_pressure;BME280_temperature;BME280_humidity;BME280_pressure;Samples;Min_cycle;Max_cycle;Signal;HPM_P1;HPM_P2
2023/05/26 00:00:04;;;;;;;17.58;5.75;;;7.70;99.90;;;;;;5003115;28;94671;-31
2023/05/26 00:02:30;;;;;;;22.75;6.95;;;7.60;99.90;;;;;;5002681;28;92200;-30
2023/05/26 00:04:58;;;;;;;13.35;4.95;;;7.70;99.90;;;;;;5002100;28;92991;-30
2023/05/26 00:07:24;;;;;;;14.97;6.07;;;7.60;99.90;;;;;;5001620;28;95512;-32
2023/05/26 00:09:50;;;;;;;11.77;4.20;;;7.60;99.90;;;;;;5002696;28;95084;-31
2023/05/26 00:12:17;;;;;;;18.40;5.53;;;7.60;99.90;;;;;;5001989;28;92598;-32
2023/05/26 00:14:42;;;;;;;21.00;5.15;;;7.60;99.90;;;;;;5002318;28;93803;-35
2023/05/26 00:17:08;;;;;;;11.30;4.47;;;7.60;99.90;;;;;;5001780;28;94685;-34
2023/05/26 00:19:37;;;;;;;13.23;5.47;;;7.50;99.90;;;;;;5001885;28;94769;-32
2023/05/26 00:22:03;;;;;;;19.38;6.32;;;7.50;99.90;;;;;;5002629;28;94597;-35
2023/05/26 00:24:29;;;;;;;13.20;7.22;;;7.50;99.90;;;;;;5002679;28;92904;-34
2023/05/26 00:26:55;;;;;;;16.13;4.93;;;7.40;99.90;;;;;;5001817;28;94712;-33
2023/05/26 00:29:20;;;;;;;13.32;5.07;;;7.40;99.90;;;;;;5002218;28;94060;-31
2023/05/26 00:31:46;;;;;;;18.58;5.03;;;7.40;99.90;;;;;;5002740;28;94310;-32
2023/05/26 00:34:11;;;;;;;20.02;5.55;;;7.40;99.90;;;;;;4997771;28;93130;-32
2023/05/26 00:36:37;;;;;;;7.82;4.35;;;7.40;99.90;;;;;;4999019;28;94587;-32
2023/05/26 00:39:03;;;;;;;11.45;5.30;;;7.40;99.90;;;;;;4998502;28;94486;-35
2023/05/26 00:41:29;;;;;;;25.08;7.47;;;7.30;99.90;;;;;;4999233;28;93737;-32
2023/05/26 00:43:55;;;;;;;14.85;5.97;;;7.30;99.90;;;;;;4999324;28;93991;-34
2023/05/26 00:46:21;;;;;;;12.30;5.30;;;7.40;99.90;;;;;;4998968;28;92854;-35
2023/05/26 00:48:46;;;;;;;16.33;5.95;;;7.40;99.90;;;;;;4998929;28;94775;-34
2023/05/26 00:51:12;;;;;;;17.05;6.00;;;7.30;99.90;;;;;;4998516;28;93470;-32
2023/05/26 00:53:43;;;;;;;18.90;6.10;;;7.30;99.90;;;;;;4999031;28;94229;-31
2023/05/26 00:56:15;;;;;;;18.30;5.57;;;7.20;99.90;;;;;;4998249;28;95321;-32
2023/05/26 00:58:42;;;;;;;16.17;5.88;;;7.20;99.90;;;;;;4998264;28;95457;-30
2023/05/26 01:01:08;;;;;;;16.20;5.72;;;7.10;99.90;;;;;;4998583;28;92180;-31
2023/05/26 01:03:37;;;;;;;13.75;5.65;;;7.20;99.90;;;;;;4998308;28;94239;-34
2023/05/26 01:06:03;;;;;;;16.23;4.95;;;7.20;99.90;;;;;;4998538;28;94762;-33
2023/05/26 01:08:29;;;;;;;9.18;4.65;;;7.20;99.90;;;;;;4998254;28;94488;-33
2023/05/26 01:11:02;;;;;;;17.73;4.82;;;7.20;99.90;;;;;;4998842;28;94424;-34
2023/05/26 01:13:34;;;;;;;10.48;5.32;;;7.10;99.90;;;;;;4998916;28;93177;-35
2023/05/26 01:16:06;;;;;;;15.95;6.40;;;7.10;99.90;;;;;;4997876;28;95574;-34
2023/05/26 01:18:40;;;;;;;9.57;4.88;;;7.10;99.90;;;;;;4998511;28;94586;-31
2023/05/26 01:21:10;;;;;;;19.55;7.93;;;7.00;99.90;;;;;;4998300;28;94311;-36
2023/05/26 01:24:08;;;;;;;13.88;4.88;;;7.00;99.90;;;;;;4997991;28;94088;-36
2023/05/26 01:27:03;;;;;;;19.73;5.68;;;7.00;99.90;;;;;;4998346;28;94427;-33
2023/05/26 01:29:30;;;;;;;23.65;6.68;;;7.00;99.90;;;;;;4998410;28;94914;-31
2023/05/26 01:32:09;;;;;;;16.13;5.63;;;7.00;99.90;;;;;;4998912;28;93833;-34
2023/05/26 01:34:35;;;;;;;20.05;5.63;;;7.00;99.90;;;;;;4997943;28;94720;-32
2023/05/26 01:37:01;;;;;;;13.35;4.88;;;7.00;99.90;;;;;;4997563;28;93596;-32
2023/05/26 01:39:26;;;;;;;15.15;5.68;;;7.00;99.90;;;;;;4998227;28;94681;-34
2023/05/26 01:42:08;;;;;;;23.60;6.90;;;7.00;99.90;;;;;;4998834;28;93952;-35
2023/05/26 01:44:43;;;;;;;17.98;5.25;;;6.90;99.90;;;;;;4997743;28;92606;-32
2023/05/26 01:47:11;;;;;;;14.82;5.30;;;6.90;99.90;;;;;;4996490;28;95361;-33
2023/05/26 01:49:40;;;;;;;14.35;4.75;;;6.90;99.90;;;;;;4997706;28;95526;-35
2023/05/26 01:52:10;;;;;;;21.27;7.63;;;7.00;99.90;;;;;;4998796;28;93196;-32
2023/05/26 01:54:49;;;;;;;11.93;4.68;;;6.90;99.90;;;;;;4998276;28;93084;-35
2023/05/26 01:57:16;;;;;;;15.00;5.80;;;6.90;99.90;;;;;;4996944;28;94627;-36
2023/05/26 01:59:41;;;;;;;18.85;5.50;;;6.90;99.90;;;;;;4997417;28;94811;-33
2023/05/26 02:02:07;;;;;;;14.30;4.35;;;6.90;99.90;;;;;;4997874;28;94239;-35
2023/05/26 02:04:33;;;;;;;13.07;4.43;;;6.90;99.90;;;;;;4998580;28;93584;-31
2023/05/26 02:07:02;;;;;;;16.77;5.68;;;6.90;99.90;;;;;;4997214;28;94567;-33
2023/05/26 02:09:29;;;;;;;17.70;5.80;;;6.90;99.90;;;;;;4996978;28;94599;-30
2023/05/26 02:11:55;;;;;;;15.73;6.60;;;6.90;99.90;;;;;;4997463;28;94883;-37
2023/05/26 02:14:20;;;;;;;17.05;6.03;;;6.90;99.90;;;;;;4997608;28;92873;-31
2023/05/26 02:16:46;;;;;;;13.77;5.00;;;6.90;99.90;;;;;;4997028;28;94969;-30
2023/05/26 02:19:12;;;;;;;18.40;5.28;;;6.90;99.90;;;;;;4997142;28;94976;-34
2023/05/26 02:21:38;;;;;;;23.05;6.80;;;6.90;99.90;;;;;;4997908;28;93134;-32
2023/05/26 02:24:04;;;;;;;13.25;3.65;;;6.90;99.90;;;;;;4997598;28;94609;-38
2023/05/26 02:26:30;;;;;;;14.63;6.65;;;6.90;99.90;;;;;;4997299;28;94174;-32
2023/05/26 02:28:56;;;;;;;18.20;6.63;;;6.90;99.90;;;;;;4997406;28;95198;-35
2023/05/26 02:31:23;;;;;;;24.40;5.57;;;6.80;99.90;;;;;;4997495;28;92133;-30
2023/05/26 02:33:50;;;;;;;15.00;5.53;;;6.70;99.90;;;;;;4997762;28;92726;-31
2023/05/26 02:36:15;;;;;;;15.10;6.18;;;6.70;99.90;;;;;;4996326;28;95413;-36
2023/05/26 02:38:42;;;;;;;14.52;6.85;;;6.70;99.90;;;;;;4997198;28;95476;-32
2023/05/26 02:41:08;;;;;;;22.80;6.47;;;6.70;99.90;;;;;;4997125;28;94788;-33
2023/05/26 02:43:34;;;;;;;22.60;7.28;;;6.70;99.90;;;;;;4996616;28;92933;-30
2023/05/26 02:46:00;;;;;;;16.02;5.68;;;6.80;99.90;;;;;;4996542;28;94865;-31
2023/05/26 02:48:25;;;;;;;19.10;6.45;;;6.80;99.90;;;;;;4996547;28;93168;-31
2023/05/26 02:50:52;;;;;;;14.75;5.43;;;6.80;99.90;;;;;;4997548;28;93077;-36
2023/05/26 02:53:18;;;;;;;14.27;6.38;;;6.80;99.90;;;;;;4997362;28;92745;-32
2023/05/26 02:55:44;;;;;;;18.38;7.25;;;6.80;99.90;;;;;;4995648;28;95402;-31
2023/05/26 02:58:11;;;;;;;11.52;4.20;;;6.80;99.90;;;;;;4996315;28;94485;-32
2023/05/26 03:00:36;;;;;;;11.27;5.97;;;6.80;99.90;;;;;;4996739;28;95501;-33
2023/05/26 03:03:02;;;;;;;14.65;5.80;;;6.80;99.90;;;;;;4996801;28;93234;-32
2023/05/26 03:05:28;;;;;;;11.23;5.72;;;6.90;99.90;;;;;;4996159;28;94975;-31
2023/05/26 03:07:53;;;;;;;21.58;6.43;;;6.80;99.90;;;;;;4996723;28;94439;-30
2023/05/26 03:10:19;;;;;;;17.30;6.60;;;6.80;99.90;;;;;;4996822;28;94588;-36
2023/05/26 03:12:44;;;;;;;40.42;7.18;;;6.70;99.90;;;;;;4996436;28;92568;-34
2023/05/26 03:15:11;;;;;;;20.58;7.22;;;6.70;99.90;;;;;;4995815;28;94322;-36
2023/05/26 03:17:37;;;;;;;23.17;6.72;;;6.60;99.90;;;;;;4997009;28;94994;-30
2023/05/26 03:20:04;;;;;;;14.88;7.25;;;6.70;99.90;;;;;;4996044;28;94183;-33
2023/05/26 03:22:30;;;;;;;16.80;6.22;;;6.70;99.90;;;;;;4996036;28;93372;-34
2023/05/26 03:24:55;;;;;;;12.65;4.80;;;6.70;99.90;;;;;;4995773;28;97382;-31
2023/05/26 03:27:26;;;;;;;17.08;6.45;;;6.70;99.90;;;;;;4995320;28;95543;-32
2023/05/26 03:29:51;;;;;;;19.77;5.75;;;6.70;99.90;;;;;;4995711;28;94391;-33
2023/05/26 03:32:17;;;;;;;18.67;5.28;;;6.70;99.90;;;;;;4996298;28;94405;-33
2023/05/26 03:34:44;;;;;;;14.02;5.28;;;6.70;99.90;;;;;;4995902;28;93677;-33
2023/05/26 03:37:10;;;;;;;10.43;3.60;;;6.70;99.90;;;;;;4995750;28;94489;-36
2023/05/26 03:39:36;;;;;;;25.85;6.43;;;6.70;99.90;;;;;;4997153;28;92612;-31
2023/05/26 03:42:02;;;;;;;17.40;6.13;;;6.70;99.90;;;;;;4978108;28;93870;-31
2023/05/26 03:44:28;;;;;;;17.73;7.30;;;6.70;99.90;;;;;;4995708;28;93977;-32
2023/05/26 03:46:53;;;;;;;12.75;4.53;;;6.70;99.90;;;;;;4995738;28;94641;-32
2023/05/26 03:49:19;;;;;;;14.45;5.40;;;6.60;99.90;;;;;;4995704;28;95194;-34
2023/05/26 03:51:45;;;;;;;20.17;5.38;;;6.60;99.90;;;;;;4996251;28;92478;-33
2023/05/26 03:54:11;;;;;;;15.32;5.68;;;6.70;99.90;;;;;;4995372;28;94882;-33
2023/05/26 03:56:37;;;;;;;16.35;6.80;;;6.70;99.90;;;;;;4977837;28;95249;-32
2023/05/26 03:59:02;;;;;;;9.60;4.53;;;6.60;99.90;;;;;;4995990;28;94868;-33
2023/05/26 04:01:29;;;;;;;17.38;6.70;;;6.70;99.90;;;;;;4995940;28;94159;-35
2023/05/26 04:03:54;;;;;;;17.10;5.72;;;6.80;99.90;;;;;;4996041;28;94579;-36
2023/05/26 04:06:22;;;;;;;12.90;5.30;;;6.80;99.90;;;;;;4995560;28;94045;-34
2023/05/26 04:08:48;;;;;;;18.70;5.13;;;6.90;99.90;;;;;;4998477;28;93542;-32
2023/05/26 04:11:14;;;;;;;12.93;6.85;;;6.90;99.90;;;;;;4999609;28;92937;-34
2023/05/26 04:13:40;;;;;;;9.63;5.25;;;6.80;99.90;;;;;;4999050;28;96207;-34
2023/05/26 04:16:06;;;;;;;13.57;5.75;;;6.90;99.90;;;;;;4998570;28;95464;-36
2023/05/26 04:18:32;;;;;;;13.35;6.00;;;6.90;99.90;;;;;;5034755;22;94721;-33
2023/05/26 04:20:58;;;;;;;12.50;4.93;;;6.80;99.90;;;;;;4978333;28;95168;-30
2023/05/26 04:23:24;;;;;;;19.10;5.93;;;6.90;99.90;;;;;;4979896;28;94868;-32
2023/05/26 04:25:51;;;;;;;18.90;5.90;;;6.90;99.90;;;;;;4978694;28;94525;-31
2023/05/26 04:28:16;;;;;;;17.30;5.05;;;7.00;99.90;;;;;;4979253;28;94230;-36
2023/05/26 04:30:42;;;;;;;20.65;7.07;;;7.10;99.90;;;;;;4980167;28;92628;-31
2023/05/26 04:33:09;;;;;;;8.65;3.88;;;7.20;99.90;;;;;;4978844;28;93621;-31
2023/05/26 04:35:35;;;;;;;18.35;5.28;;;7.30;99.90;;;;;;4960902;28;94251;-34
2023/05/26 04:38:01;;;;;;;23.75;5.63;;;7.40;99.90;;;;;;4978643;28;95068;-31
2023/05/26 04:40:27;;;;;;;9.05;5.10;;;7.60;99.90;;;;;;4992803;28;93337;-33
2023/05/26 04:42:53;;;;;;;17.23;5.10;;;7.70;99.90;;;;;;4999622;28;95198;-31
2023/05/26 04:45:18;;;;;;;14.43;5.30;;;7.80;99.90;;;;;;4998380;28;94600;-34
2023/05/26 04:47:45;;;;;;;20.48;5.68;;;7.80;99.90;;;;;;4999337;28;94801;-37
2023/05/26 04:50:12;;;;;;;18.13;5.05;;;7.90;99.90;;;;;;4998870;28;94443;-34
2023/05/26 04:52:41;;;;;;;15.18;5.50;;;8.00;99.90;;;;;;4998443;28;94902;-31
2023/05/26 04:55:07;;;;;;;17.83;5.88;;;8.20;99.90;;;;;;4998022;28;94899;-36
2023/05/26 04:57:33;;;;;;;19.25;6.30;;;8.40;99.90;;;;;;4998690;28;93667;-33
2023/05/26 04:59:59;;;;;;;16.58;6.03;;;8.50;99.90;;;;;;4998831;28;93298;-32
2023/05/26 05:02:24;;;;;;;20.90;5.82;;;8.70;99.90;;;;;;4997376;28;94158;-32
2023/05/26 05:04:50;;;;;;;26.85;5.82;;;8.70;99.90;;;;;;4998666;28;94856;-35
2023/05/26 05:07:16;;;;;;;13.43;5.85;;;9.00;99.90;;;;;;4998232;28;93921;-35
2023/05/26 05:09:41;;;;;;;16.00;5.18;;;9.10;99.90;;;;;;4998707;28;93136;-34
2023/05/26 05:12:07;;;;;;;10.65;6.15;;;9.20;99.90;;;;;;4997800;28;95715;-34
2023/05/26 05:14:33;;;;;;;22.90;6.65;;;9.20;99.90;;;;;;4998405;28;94537;-33
2023/05/26 05:16:58;;;;;;;18.88;7.22;;;9.30;99.90;;;;;;4999238;28;92582;-33
2023/05/26 05:19:24;;;;;;;20.05;6.00;;;9.40;99.90;;;;;;4997173;28;91371;-30
2023/05/26 05:21:50;;;;;;;29.05;7.45;;;9.40;99.90;;;;;;4998934;28;94836;-32
2023/05/26 05:24:15;;;;;;;11.52;7.22;;;9.50;99.90;;;;;;4979608;28;94894;-34
2023/05/26 05:26:41;;;;;;;13.93;5.50;;;9.60;99.90;;;;;;4976198;28;94182;-34
2023/05/26 05:29:07;;;;;;;14.32;5.03;;;9.70;99.90;;;;;;4995781;28;93615;-31
2023/05/26 05:31:33;;;;;;;18.00;6.18;;;9.80;99.90;;;;;;4995860;28;95007;-34
2023/05/26 05:33:59;;;;;;;25.23;8.15;;;9.90;99.90;;;;;;4996228;28;94849;-33
2023/05/26 05:36:24;;;;;;;14.43;6.15;;;10.00;99.90;;;;;;4995729;28;93913;-34
2023/05/26 05:38:50;;;;;;;14.52;4.72;;;10.20;99.90;;;;;;4995543;28;93695;-35
2023/05/26 05:41:15;;;;;;;17.92;6.32;;;10.20;99.90;;;;;;4994828;28;96616;-32
2023/05/26 05:43:41;;;;;;;16.65;5.50;;;10.30;99.90;;;;;;4995800;28;94318;-32
2023/05/26 05:46:07;;;;;;;20.65;6.60;;;10.30;99.90;;;;;;4995952;28;93645;-31
2023/05/26 05:48:32;;;;;;;9.30;4.13;;;10.30;99.90;;;;;;4995677;28;93278;-31
2023/05/26 05:50:59;;;;;;;16.63;6.15;;;10.30;99.90;;;;;;4976662;28;96018;-35
2023/05/26 05:53:25;;;;;;;24.08;7.28;;;10.40;99.90;;;;;;4995082;28;96154;-34
2023/05/26 05:55:50;;;;;;;15.75;5.32;;;10.50;99.90;;;;;;4995859;28;94329;-35
2023/05/26 05:58:16;;;;;;;22.38;6.60;;;10.60;99.90;;;;;;4995512;28;92853;-33
2023/05/26 06:00:41;;;;;;;8.63;3.13;;;10.70;99.90;;;;;;4994479;28;94925;-31
2023/05/26 06:03:07;;;;;;;13.35;5.97;;;10.70;99.90;;;;;;4995228;28;94427;-35
2023/05/26 06:05:33;;;;;;;27.17;8.13;;;10.80;99.90;;;;;;4995351;28;94420;-32
2023/05/26 06:07:58;;;;;;;22.25;5.75;;;10.90;99.90;;;;;;4996355;28;92572;-34
2023/05/26 06:10:24;;;;;;;7.75;3.63;;;11.10;99.90;;;;;;4994864;28;95204;-34
2023/05/26 06:12:49;;;;;;;22.45;7.45;;;11.40;99.90;;;;;;4995346;28;94741;-33
2023/05/26 06:15:18;;;;;;;19.50;7.45;;;11.40;99.90;;;;;;4980510;28;95106;-32
2023/05/26 06:17:44;;;;;;;14.32;4.70;;;11.50;99.90;;;;;;4975466;28;92133;-33
2023/05/26 06:20:10;;;;;;;7.35;4.80;;;11.60;99.90;;;;;;4974694;28;94621;-32
2023/05/26 06:22:36;;;;;;;5.78;3.35;;;11.60;99.90;;;;;;4975406;28;94910;-32
2023/05/26 06:25:03;;;;;;;18.27;5.95;;;11.70;99.90;;;;;;4975117;28;94541;-35
2023/05/26 06:27:29;;;;;;;11.60;2.65;;;11.80;99.90;;;;;;4974606;28;92959;-32
2023/05/26 06:29:55;;;;;;;16.42;6.03;;;11.80;99.90;;;;;;4974004;28;94463;-33
2023/05/26 06:32:20;;;;;;;27.00;6.68;;;11.80;99.90;;;;;;4973248;28;94696;-32
2023/05/26 06:34:47;;;;;;;8.80;3.90;;;11.90;99.90;;;;;;4975513;28;93064;-31
2023/05/26 06:37:12;;;;;;;19.05;5.53;;;12.00;99.90;;;;;;4974527;28;93057;-32
2023/05/26 06:39:38;;;;;;;13.32;6.32;;;12.10;99.90;;;;;;4973174;28;95758;-32
2023/05/26 06:42:05;;;;;;;14.55;5.00;;;12.00;99.90;;;;;;4961969;28;95783;-32
2023/05/26 06:44:31;;;;;;;13.20;5.68;;;12.00;99.90;;;;;;4957359;28;93279;-31
2023/05/26 06:46:57;;;;;;;13.30;6.13;;;12.10;99.90;;;;;;4975086;28;93403;-35
2023/05/26 06:49:23;;;;;;;14.65;5.20;;;12.20;99.90;;;;;;4974694;28;94793;-35
2023/05/26 06:51:49;;;;;;;10.02;5.32;;;12.00;99.90;;;;;;4973839;28;94724;-30
2023/05/26 06:54:14;;;;;;;11.57;4.80;;;12.10;99.90;;;;;;4975067;28;92530;-34
2023/05/26 06:56:40;;;;;;;19.88;5.55;;;12.10;99.90;;;;;;4974015;28;92146;-31
2023/05/26 06:59:06;;;;;;;11.30;5.93;;;12.20;99.90;;;;;;4973948;28;95601;-35
2023/05/26 07:01:32;;;;;;;11.05;4.38;;;12.40;99.90;;;;;;4973925;28;95374;-32
2023/05/26 07:03:58;;;;;;;15.55;4.88;;;12.30;99.90;;;;;;4974577;28;93910;-34
2023/05/26 07:06:24;;;;;;;22.67;6.90;;;12.40;99.90;;;;;;4974425;28;92179;-33
2023/05/26 07:08:49;;;;;;;5.57;3.92;;;12.30;99.90;;;;;;4973517;28;94366;-32
2023/05/26 07:11:15;;;;;;;18.70;6.25;;;12.20;99.90;;;;;;4974599;28;94586;-31
2023/05/26 07:13:40;;;;;;;22.27;5.88;;;12.40;99.90;;;;;;4974983;28;93635;-32
2023/05/26 07:16:07;;;;;;;12.95;5.38;;;12.90;99.90;;;;;;4974216;28;94572;-36
2023/05/26 07:18:32;;;;;;;14.85;5.95;;;12.90;99.90;;;;;;4974572;28;93280;-31
2023/05/26 07:20:58;;;;;;;14.65;5.53;;;12.90;99.90;;;;;;4973707;28;94657;-34
2023/05/26 07:23:24;;;;;;;17.35;5.22;;;12.60;99.90;;;;;;4957175;28;94460;-35
2023/05/26 07:25:49;;;;;;;14.35;5.32;;;12.60;99.90;;;;;;4974087;28;92986;-35
2023/05/26 07:28:15;;;;;;;8.73;4.88;;;12.80;99.90;;;;;;4972856;28;95718;-34
2023/05/26 07:30:40;;;;;;;15.63;5.93;;;12.80;99.90;;;;;;4973699;28;95550;-33
2023/05/26 07:33:06;;;;;;;6.25;4.53;;;12.70;99.90;;;;;;4956030;28;93384;-35
2023/05/26 07:35:32;;;;;;;9.77;4.82;;;12.50;99.90;;;;;;4974912;28;93140;-34
2023/05/26 07:37:58;;;;;;;14.15;5.47;;;12.40;99.90;;;;;;4973857;28;94711;-35
2023/05/26 07:40:24;;;;;;;20.00;5.82;;;12.30;99.90;;;;;;4973452;28;95246;-36
2023/05/26 07:42:50;;;;;;;25.48;5.75;;;12.20;99.90;;;;;;4975315;28;94647;-36
2023/05/26 07:45:15;;;;;;;15.57;5.50;;;12.10;99.90;;;;;;4977561;28;92630;-33
2023/05/26 07:47:41;;;;;;;18.75;6.63;;;12.10;99.90;;;;;;4944924;28;94152;-31
2023/05/26 07:50:07;;;;;;;16.60;5.75;;;12.20;99.90;;;;;;4978964;28;94836;-32
2023/05/26 07:52:33;;;;;;;12.45;5.07;;;12.60;99.90;;;;;;4959427;28;94264;-32
2023/05/26 07:54:59;;;;;;;19.58;5.78;;;12.90;99.90;;;;;;4978780;28;93768;-33
2023/05/26 07:57:25;;;;;;;15.82;4.43;;;13.20;99.90;;;;;;4977988;28;94840;-35
2023/05/26 07:59:51;;;;;;;14.88;5.13;;;13.50;99.90;;;;;;4979641;28;94549;-32
2023/05/26 08:02:16;;;;;;;19.50;3.70;;;13.90;99.90;;;;;;4978710;28;93182;-33
2023/05/26 08:04:42;;;;;;;12.48;4.90;;;13.90;99.90;;;;;;4980019;28;94122;-33
2023/05/26 08:07:08;;;;;;;16.45;5.45;;;14.30;99.90;;;;;;4978628;28;94635;-33
2023/05/26 08:09:34;;;;;;;7.95;4.05;;;14.50;99.90;;;;;;4979757;28;94991;-31
2023/05/26 08:11:59;;;;;;;17.05;6.20;;;14.70;99.90;;;;;;4979662;28;92165;-30
2023/05/26 08:14:26;;;;;;;6.20;3.42;;;14.80;99.90;;;;;;4979392;28;94800;-33
2023/05/26 08:16:51;;;;;;;16.55;5.47;;;14.90;99.90;;;;;;4978345;28;95804;-32
2023/05/26 08:19:17;;;;;;;12.82;4.82;;;15.00;99.90;;;;;;4978232;28;95159;-31
2023/05/26 08:21:43;;;;;;;12.25;4.32;;;15.00;99.90;;;;;;4979180;28;93084;-32
2023/05/26 08:24:08;;;;;;;9.90;4.90;;;14.80;99.90;;;;;;4979126;28;94249;-32
2023/05/26 08:26:34;;;;;;;14.40;5.15;;;14.80;99.90;;;;;;4960215;28;93621;-32
2023/05/26 08:28:59;;;;;;;13.35;4.55;;;14.90;99.90;;;;;;4979099;28;94703;-30
2023/05/26 08:31:25;;;;;;;10.80;3.65;;;15.00;99.90;;;;;;4978862;28;93160;-32
2023/05/26 08:33:53;;;;;;;17.75;4.68;;;14.90;99.90;;;;;;4979650;28;93766;-31
2023/05/26 08:36:19;;;;;;;8.45;4.20;;;15.10;99.90;;;;;;4978856;28;94596;-35
2023/05/26 08:38:45;;;;;;;13.63;5.75;;;15.00;90.00;;;;;;4978149;28;94371;-32
2023/05/26 08:41:17;;;;;;;13.40;4.20;;;15.00;99.10;;;;;;4978482;28;94019;-32
2023/05/26 08:43:50;;;;;;;8.20;4.13;;;15.10;95.70;;;;;;4978057;28;92778;-32
2023/05/26 08:46:16;;;;;;;15.77;4.00;;;15.20;94.20;;;;;;4978158;28;94738;-33
2023/05/26 08:48:42;;;;;;;14.30;4.95;;;15.30;98.60;;;;;;4978586;28;94656;-31
2023/05/26 08:51:09;;;;;;;14.15;4.60;;;15.40;97.00;;;;;;4979104;28;92720;-33
2023/05/26 08:53:35;;;;;;;11.57;4.93;;;15.20;99.90;;;;;;4977825;28;93877;-31
2023/05/26 08:56:02;;;;;;;8.75;4.05;;;15.50;97.10;;;;;;4977443;28;95300;-31
2023/05/26 08:58:29;;;;;;;19.58;5.68;;;15.30;94.60;;;;;;4978914;28;94617;-32
2023/05/26 09:00:56;;;;;;;14.63;5.18;;;15.40;96.70;;;;;;4978559;28;94302;-32
2023/05/26 09:03:22;;;;;;;8.43;4.07;;;15.50;99.00;;;;;;4978275;28;93293;-33
2023/05/26 09:05:47;;;;;;;12.45;4.65;;;15.70;95.70;;;;;;4978447;28;95395;-33
2023/05/26 09:08:13;;;;;;;11.43;4.57;;;15.80;89.20;;;;;;4977797;28;95622;-32
2023/05/26 09:10:40;;;;;;;9.23;3.17;;;15.70;90.10;;;;;;4978525;28;92968;-36
2023/05/26 09:13:09;;;;;;;4.75;2.92;;;15.90;82.00;;;;;;4978582;28;92710;-34
2023/05/26 09:15:36;;;;;;;13.13;3.88;;;16.00;91.20;;;;;;4978190;28;94662;-33
2023/05/26 09:18:14;;;;;;;8.50;3.30;;;16.00;90.40;;;;;;4977719;28;94587;-34
2023/05/26 09:20:40;;;;;;;7.15;3.55;;;16.10;81.80;;;;;;4978029;28;93305;-31
2023/05/26 09:23:07;;;;;;;10.20;3.20;;;16.20;82.00;;;;;;4978336;28;93117;-35
2023/05/26 09:25:38;;;;;;;14.43;4.30;;;16.30;77.90;;;;;;4978965;28;94852;-31
2023/05/26 09:28:06;;;;;;;8.15;3.38;;;16.20;75.30;;;;;;4978124;28;94929;-32
2023/05/26 09:30:36;;;;;;;6.70;3.38;;;16.30;77.30;;;;;;4977887;28;94670;-32
2023/05/26 09:33:03;;;;;;;13.38;4.20;;;16.10;74.60;;;;;;4977996;28;93528;-32
2023/05/26 09:35:37;;;;;;;12.07;5.35;;;16.30;75.90;;;;;;4977704;28;94617;-33
2023/05/26 09:38:08;;;;;;;9.57;3.22;;;16.50;76.20;;;;;;4978148;28;94914;-32
2023/05/26 09:40:34;;;;;;;7.80;4.13;;;16.30;74.90;;;;;;4978778;28;93473;-35
2023/05/26 09:43:01;;;;;;;11.52;3.40;;;16.40;75.20;;;;;;4978127;28;93949;-30
2023/05/26 09:45:34;;;;;;;8.90;4.32;;;16.60;75.80;;;;;;4977017;28;95805;-33
2023/05/26 09:48:01;;;;;;;8.55;4.20;;;16.60;73.80;;;;;;4978232;28;93570;-31
2023/05/26 09:50:30;;;;;;;7.28;3.10;;;16.80;75.20;;;;;;4977938;28;94268;-32
2023/05/26 09:52:57;;;;;;;9.05;2.90;;;16.70;73.20;;;;;;4976939;28;94259;-32
2023/05/26 09:55:23;;;;;;;9.65;3.90;;;16.70;72.00;;;;;;4976332;28;95606;-37
2023/05/26 09:57:51;;;;;;;16.48;4.53;;;16.70;72.20;;;;;;4959642;28;95190;-31
2023/05/26 10:00:17;;;;;;;11.05;3.22;;;16.70;74.10;;;;;;4959720;28;93052;-31
2023/05/26 10:02:45;;;;;;;7.70;3.28;;;16.90;74.80;;;;;;4977279;28;92102;-32
2023/05/26 10:05:11;;;;;;;6.65;3.08;;;16.80;73.80;;;;;;4977507;28;93753;-33
2023/05/26 10:07:41;;;;;;;7.38;3.55;;;16.60;70.70;;;;;;4978016;28;94458;-31
2023/05/26 10:10:10;;;;;;;7.20;3.90;;;16.40;72.90;;;;;;4977614;28;92130;-34
2023/05/26 10:12:36;;;;;;;13.05;3.22;;;16.80;70.70;;;;;;4977808;28;93340;-31
2023/05/26 10:15:03;;;;;;;9.20;4.47;;;16.70;69.70;;;;;;4977177;28;94755;-32
2023/05/26 10:17:30;;;;;;;8.45;4.07;;;16.40;70.90;;;;;;4976833;28;94460;-31
2023/05/26 10:19:57;;;;;;;9.45;4.18;;;16.50;72.70;;;;;;4976726;28;93989;-31
2023/05/26 10:22:46;;;;;;;6.20;3.90;;;16.40;74.20;;;;;;4976839;28;93274;-33
2023/05/26 10:25:38;;;;;;;19.02;3.53;;;16.30;70.10;;;;;;4973524;28;95924;-33
2023/05/26 10:28:22;;;;;;;7.50;3.03;;;16.40;72.10;;;;;;4966192;28;94245;-34
2023/05/26 10:30:47;;;;;;;7.70;3.45;;;16.60;71.50;;;;;;4977253;28;93432;-35
2023/05/26 10:33:15;;;;;;;11.57;3.78;;;16.60;73.10;;;;;;4954544;28;92231;-32
2023/05/26 10:35:56;;;;;;;13.70;3.70;;;16.80;71.80;;;;;;4957768;28;94616;-31
2023/05/26 10:38:35;;;;;;;8.10;3.95;;;16.60;72.50;;;;;;4957265;28;94450;-35
2023/05/26 10:41:01;;;;;;;12.35;4.78;;;16.70;71.00;;;;;;4958212;28;92173;-31
2023/05/26 10:43:27;;;;;;;10.48;3.83;;;16.60;70.30;;;;;;4958892;28;93325;-33
2023/05/26 10:46:03;;;;;;;8.80;4.00;;;16.70;72.70;;;;;;4976144;28;95696;-31
2023/05/26 10:48:58;;;;;;;9.13;4.03;;;16.80;74.70;;;;;;4976235;28;94869;-35
2023/05/26 10:51:33;;;;;;;8.82;4.05;;;16.90;72.90;;;;;;4977148;28;94657;-33
2023/05/26 10:54:14;;;;;;;7.78;4.00;;;17.00;72.20;;;;;;4976870;28;93323;-31
2023/05/26 10:56:43;;;;;;;5.80;3.30;;;17.10;71.30;;;;;;4976506;28;94786;-31
2023/05/26 10:59:28;;;;;;;8.30;3.85;;;17.00;72.70;;;;;;4976278;28;94804;-35
2023/05/26 11:01:55;;;;;;;10.57;4.18;;;17.00;73.20;;;;;;4976885;28;94580;-36
2023/05/26 11:04:21;;;;;;;13.93;3.65;;;16.90;70.80;;;;;;4977184;28;92730;-30
2023/05/26 11:06:52;;;;;;;11.65;4.32;;;17.00;73.20;;;;;;4976379;28;95137;-33
2023/05/26 11:09:22;;;;;;;13.68;4.50;;;17.00;71.70;;;;;;4975840;28;94524;-35
2023/05/26 11:11:55;;;;;;;16.00;5.82;;;16.90;70.70;;;;;;4976299;28;94237;-33
2023/05/26 11:14:28;;;;;;;9.73;3.50;;;16.70;69.50;;;;;;4976553;28;93353;-32
2023/05/26 11:17:04;;;;;;;16.38;4.15;;;16.80;70.80;;;;;;4975689;28;94665;-32
2023/05/26 11:19:32;;;;;;;7.13;3.75;;;16.80;71.50;;;;;;4976131;28;95144;-33
2023/05/26 11:22:00;;;;;;;8.85;3.58;;;16.90;72.80;;;;;;4977157;28;94918;-30
2023/05/26 11:24:26;;;;;;;10.20;3.87;;;16.60;70.20;;;;;;4976528;28;93355;-34
2023/05/26 11:26:51;;;;;;;9.90;4.38;;;16.90;72.90;;;;;;4976346;28;94995;-36
2023/05/26 11:29:22;;;;;;;13.02;4.65;;;16.70;72.00;;;;;;4975550;28;94461;-31
2023/05/26 11:31:49;;;;;;;12.65;4.57;;;16.80;73.50;;;;;;4974009;28;92564;-31
2023/05/26 11:34:14;;;;;;;7.55;3.72;;;17.00;72.60;;;;;;4975062;28;92215;-35
2023/05/26 11:36:44;;;;;;;8.45;3.70;;;16.80;70.70;;;;;;4941234;28;95110;-29
2023/05/26 11:39:12;;;;;;;13.73;4.63;;;16.50;70.00;;;;;;4975793;28;95399;-31
2023/05/26 11:41:37;;;;;;;9.55;3.83;;;16.70;73.50;;;;;;4980826;28;94335;-35
2023/05/26 11:44:08;;;;;;;15.15;4.32;;;16.80;72.50;;;;;;4990654;28;93097;-33
2023/05/26 11:46:37;;;;;;;8.65;4.18;;;16.60;71.60;;;;;;4970389;28;94598;-33
2023/05/26 11:49:03;;;;;;;10.20;4.03;;;16.80;75.80;;;;;;4972537;28;95954;-33
2023/05/26 11:51:31;;;;;;;8.13;3.65;;;16.70;71.70;;;;;;4956067;28;93049;-35
2023/05/26 11:53:58;;;;;;;14.40;4.68;;;16.90;72.90;;;;;;4974163;28;92544;-35
2023/05/26 11:56:35;;;;;;;6.90;4.28;;;16.80;72.30;;;;;;4973146;28;94786;-32
2023/05/26 11:59:02;;;;;;;22.20;4.30;;;16.80;73.20;;;;;;4971033;28;94930;-34
2023/05/26 12:01:29;;;;;;;7.78;3.83;;;16.80;73.30;;;;;;4973382;28;94525;-35
2023/05/26 12:03:57;;;;;;;17.33;4.93;;;16.70;71.60;;;;;;4973833;28;92695;-34
2023/05/26 12:06:24;;;;;;;;;;;16.70;72.60;;;;;;4974565;28;95021;-35
2023/05/26 12:08:55;;;;;;;17.13;4.78;;;16.70;74.40;;;;;;4974876;28;93589;-31
2023/05/26 12:11:37;;;;;;;13.43;5.78;;;16.60;71.40;;;;;;4974434;28;93777;-32
2023/05/26 12:14:11;;;;;;;5.55;3.63;;;16.60;73.70;;;;;;4973559;28;94170;-31
2023/05/26 12:16:37;;;;;;;9.82;5.15;;;16.60;72.60;;;;;;4955794;28;94989;-35
2023/05/26 12:19:06;;;;;;;7.32;4.10;;;16.50;73.20;;;;;;4973550;28;94422;-35
2023/05/26 12:21:42;;;;;;;7.63;4.63;;;16.40;74.30;;;;;;4974475;28;93077;-33
2023/05/26 12:24:08;;;;;;;12.48;4.05;;;16.80;76.80;;;;;;4973643;28;94248;-34
2023/05/26 12:26:34;;;;;;;12.95;3.63;;;16.80;73.00;;;;;;4972568;28;95813;-33
2023/05/26 12:29:16;;;;;;;13.43;4.35;;;16.90;75.40;;;;;;4975140;28;96101;-31
2023/05/26 12:31:48;;;;;;;19.25;5.53;;;16.90;73.70;;;;;;4976615;28;94332;-36
2023/05/26 12:34:18;;;;;;;12.73;3.85;;;16.70;73.80;;;;;;4976928;28;93944;-32
2023/05/26 12:36:45;;;;;;;11.43;4.88;;;16.70;74.10;;;;;;4976385;28;95061;-33
2023/05/26 12:39:12;;;;;;;9.20;4.65;;;16.70;72.10;;;;;;4976460;28;94371;-35
2023/05/26 12:41:40;;;;;;;9.80;4.55;;;16.50;74.40;;;;;;4977491;28;93009;-33
2023/05/26 12:44:05;;;;;;;8.98;4.80;;;16.50;76.30;;;;;;4978004;28;93436;-32